sensor_id;sensor_type;location;lat;lon;timestamp;P1;durP1;ratioP1;P2;durP2;ratioP2
19036;SDS011;9651;49.138;8.900;2023-04-10T00:01:21;11.93;;;7.13;;
19036;SDS011;9651;49.138;8.900;2023-04-10T00:05:23;12.53;;;8.27;;
19036;SDS011;9651;49.138;8.900;2023-04-10T00:09:25;11.77;;;8.07;;
19036;SDS011;9651;49.138;8.900;2023-04-10T00:13:29;10.33;;;7.33;;
19036;SDS011;9651;49.138;8.900;2023-04-10T00:17:31;13.83;;;9.00;;
19036;SDS011;9651;49.138;8.900;2023-04-10T00:21:33;11.07;;;8.23;;
19036;SDS011;9651;49.138;8.900;2023-04-10T00:25:35;11.10;;;8.23;;
19036;SDS011;9651;49.138;8.900;2023-04-10T00:29:38;10.53;;;7.77;;
19036;SDS011;9651;49.138;8.900;2023-04-10T00:33:40;13.03;;;7.73;;
19036;SDS011;9651;49.138;8.900;2023-04-10T00:37:42;12.40;;;8.20;;
19036;SDS011;9651;49.138;8.900;2023-04-10T00:41:44;9.90;;;6.80;;
19036;SDS011;9651;49.138;8.900;2023-04-10T00:45:47;10.00;;;7.00;;
19036;SDS011;9651;49.138;8.900;2023-04-10T00:49:49;10.33;;;6.30;;
19036;SDS011;9651;49.138;8.900;2023-04-10T00:53:51;11.23;;;7.20;;
19036;SDS011;9651;49.138;8.900;2023-04-10T00:57:54;9.93;;;7.07;;
19036;SDS011;9651;49.138;8.900;2023-04-10T01:01:58;12.07;;;7.30;;
19036;SDS011;9651;49.138;8.900;2023-04-10T01:06:02;11.63;;;7.97;;
19036;SDS011;9651;49.138;8.900;2023-04-10T01:10:10;10.97;;;7.60;;
19036;SDS011;9651;49.138;8.900;2023-04-10T01:14:22;11.00;;;7.57;;
19036;SDS011;9651;49.138;8.900;2023-04-10T01:18:33;9.60;;;6.80;;
19036;SDS011;9651;49.138;8.900;2023-04-10T01:22:41;12.43;;;8.57;;
19036;SDS011;9651;49.138;8.900;2023-04-10T01:26:55;11.67;;;7.60;;
19036;SDS011;9651;49.138;8.900;2023-04-10T01:31:15;11.97;;;7.43;;
19036;SDS011;9651;49.138;8.900;2023-04-10T01:35:20;12.07;;;7.70;;
19036;SDS011;9651;49.138;8.900;2023-04-10T01:39:23;10.27;;;7.00;;
19036;SDS011;9651;49.138;8.900;2023-04-10T01:43:28;9.30;;;6.43;;
19036;SDS011;9651;49.138;8.900;2023-04-10T01:47:33;12.47;;;7.63;;
19036;SDS011;9651;49.138;8.900;2023-04-10T01:51:36;11.57;;;7.87;;
19036;SDS011;9651;49.138;8.900;2023-04-10T01:55:42;11.30;;;7.33;;
19036;SDS011;9651;49.138;8.900;2023-04-10T01:59:46;11.30;;;7.20;;
19036;SDS011;9651;49.138;8.900;2023-04-10T02:03:49;12.97;;;7.87;;
19036;SDS011;9651;49.138;8.900;2023-04-10T02:07:53;11.97;;;7.80;;
19036;SDS011;9651;49.138;8.900;2023-04-10T02:12:03;13.83;;;8.20;;
19036;SDS011;9651;49.138;8.900;2023-04-10T02:16:07;13.40;;;8.57;;
19036;SDS011;9651;49.138;8.900;2023-04-10T02:20:11;14.10;;;9.20;;
19036;SDS011;9651;49.138;8.900;2023-04-10T02:24:14;12.13;;;8.27;;
19036;SDS011;9651;49.138;8.900;2023-04-10T02:28:16;12.67;;;8.00;;
19036;SDS011;9651;49.138;8.900;2023-04-10T02:32:18;12.70;;;8.07;;
19036;SDS011;9651;49.138;8.900;2023-04-10T02:36:21;13.70;;;7.87;;
19036;SDS011;9651;49.138;8.900;2023-04-10T02:40:23;13.40;;;8.37;;
19036;SDS011;9651;49.138;8.900;2023-04-10T02:44:32;13.27;;;8.60;;
19036;SDS011;9651;49.138;8.900;2023-04-10T02:48:35;15.63;;;8.53;;
19036;SDS011;9651;49.138;8.900;2023-04-10T02:52:39;11.03;;;7.37;;
19036;SDS011;9651;49.138;8.900;2023-04-10T02:56:41;10.80;;;6.97;;
19036;SDS011;9651;49.138;8.900;2023-04-10T03:00:46;12.37;;;7.77;;
19036;SDS011;9651;49.138;8.900;2023-04-10T03:04:52;13.43;;;8.27;;
19036;SDS011;9651;49.138;8.900;2023-04-10T03:08:56;14.83;;;9.30;;
19036;SDS011;9651;49.138;8.900;2023-04-10T03:13:00;13.00;;;8.23;;
19036;SDS011;9651;49.138;8.900;2023-04-10T03:17:02;11.67;;;7.73;;
19036;SDS011;9651;49.138;8.900;2023-04-10T03:21:05;14.03;;;9.07;;
19036;SDS011;9651;49.138;8.900;2023-04-10T03:25:09;13.67;;;8.40;;
19036;SDS011;9651;49.138;8.900;2023-04-10T03:29:11;14.60;;;8.80;;
19036;SDS011;9651;49.138;8.900;2023-04-10T03:33:18;13.20;;;8.47;;
19036;SDS011;9651;49.138;8.900;2023-04-10T03:37:20;15.50;;;9.00;;
19036;SDS011;9651;49.138;8.900;2023-04-10T03:41:24;14.40;;;8.67;;
19036;SDS011;9651;49.138;8.900;2023-04-10T03:45:27;13.67;;;8.27;;
19036;SDS011;9651;49.138;8.900;2023-04-10T03:49:28;15.27;;;8.93;;
19036;SDS011;9651;49.138;8.900;2023-04-10T03:53:37;14.13;;;8.77;;
19036;SDS011;9651;49.138;8.900;2023-04-10T03:57:45;15.57;;;9.13;;
19036;SDS011;9651;49.138;8.900;2023-04-10T04:01:48;15.70;;;9.83;;
19036;SDS011;9651;49.138;8.900;2023-04-10T04:05:50;14.20;;;9.33;;
19036;SDS011;9651;49.138;8.900;2023-04-10T04:10:11;16.43;;;9.47;;
19036;SDS011;9651;49.138;8.900;2023-04-10T04:14:45;15.73;;;10.13;;
19036;SDS011;9651;49.138;8.900;2023-04-10T04:19:05;15.20;;;9.43;;
19036;SDS011;9651;49.138;8.900;2023-04-10T04:23:13;14.97;;;8.97;;
19036;SDS011;9651;49.138;8.900;2023-04-10T04:27:39;15.33;;;9.50;;
19036;SDS011;9651;49.138;8.900;2023-04-10T04:31:56;16.10;;;9.43;;
19036;SDS011;9651;49.138;8.900;2023-04-10T04:36:31;12.93;;;7.87;;
19036;SDS011;9651;49.138;8.900;2023-04-10T04:40:38;14.70;;;8.80;;
19036;SDS011;9651;49.138;8.900;2023-04-10T04:44:49;14.60;;;9.03;;
19036;SDS011;9651;49.138;8.900;2023-04-10T04:49:11;13.73;;;8.70;;
19036;SDS011;9651;49.138;8.900;2023-04-10T04:53:21;14.50;;;9.30;;
19036;SDS011;9651;49.138;8.900;2023-04-10T04:57:39;14.53;;;9.27;;
19036;SDS011;9651;49.138;8.900;2023-04-10T05:01:59;15.90;;;9.60;;
19036;SDS011;9651;49.138;8.900;2023-04-10T05:06:18;15.23;;;8.67;;
19036;SDS011;9651;49.138;8.900;2023-04-10T05:10:41;13.67;;;8.50;;
19036;SDS011;9651;49.138;8.900;2023-04-10T05:14:55;13.40;;;8.73;;
19036;SDS011;9651;49.138;8.900;2023-04-10T05:19:08;16.87;;;9.40;;
19036;SDS011;9651;49.138;8.900;2023-04-10T05:23:34;17.00;;;9.87;;
19036;SDS011;9651;49.138;8.900;2023-04-10T05:27:55;15.50;;;9.43;;
19036;SDS011;9651;49.138;8.900;2023-04-10T05:32:13;18.23;;;8.70;;
19036;SDS011;9651;49.138;8.900;2023-04-10T05:36:33;15.47;;;8.57;;
19036;SDS011;9651;49.138;8.900;2023-04-10T05:41:00;14.63;;;9.17;;
19036;SDS011;9651;49.138;8.900;2023-04-10T05:45:10;15.53;;;9.10;;
19036;SDS011;9651;49.138;8.900;2023-04-10T05:49:31;14.70;;;8.73;;
19036;SDS011;9651;49.138;8.900;2023-04-10T05:53:51;13.77;;;9.17;;
19036;SDS011;9651;49.138;8.900;2023-04-10T05:58:14;14.80;;;9.07;;
19036;SDS011;9651;49.138;8.900;2023-04-10T06:02:39;12.60;;;8.53;;
19036;SDS011;9651;49.138;8.900;2023-04-10T06:06:47;13.33;;;8.43;;
19036;SDS011;9651;49.138;8.900;2023-04-10T06:10:49;13.70;;;8.90;;
19036;SDS011;9651;49.138;8.900;2023-04-10T06:14:52;12.30;;;8.50;;
19036;SDS011;9651;49.138;8.900;2023-04-10T06:18:55;14.30;;;8.30;;
19036;SDS011;9651;49.138;8.900;2023-04-10T06:22:57;12.97;;;8.30;;
19036;SDS011;9651;49.138;8.900;2023-04-10T06:27:00;13.63;;;8.80;;
19036;SDS011;9651;49.138;8.900;2023-04-10T06:31:04;10.80;;;7.63;;
19036;SDS011;9651;49.138;8.900;2023-04-10T06:35:09;15.40;;;9.20;;
19036;SDS011;9651;49.138;8.900;2023-04-10T06:39:12;10.67;;;7.77;;
19036;SDS011;9651;49.138;8.900;2023-04-10T06:43:14;11.67;;;8.30;;
19036;SDS011;9651;49.138;8.900;2023-04-10T06:47:18;12.73;;;8.50;;
19036;SDS011;9651;49.138;8.900;2023-04-10T06:51:20;11.13;;;7.60;;
19036;SDS011;9651;49.138;8.900;2023-04-10T06:55:22;10.73;;;7.47;;
19036;SDS011;9651;49.138;8.900;2023-04-10T06:59:24;10.90;;;7.80;;
19036;SDS011;9651;49.138;8.900;2023-04-10T07:03:27;10.33;;;7.37;;
19036;SDS011;9651;49.138;8.900;2023-04-10T07:07:29;10.23;;;7.67;;
19036;SDS011;9651;49.138;8.900;2023-04-10T07:11:32;10.60;;;7.83;;
19036;SDS011;9651;49.138;8.900;2023-04-10T07:15:34;9.47;;;6.97;;
19036;SDS011;9651;49.138;8.900;2023-04-10T07:19:37;11.50;;;8.15;;
19036;SDS011;9651;49.138;8.900;2023-04-10T07:23:39;9.50;;;7.00;;
19036;SDS011;9651;49.138;8.900;2023-04-10T07:27:41;11.90;;;8.80;;
19036;SDS011;9651;49.138;8.900;2023-04-10T07:31:43;9.82;;;7.88;;
19036;SDS011;9651;49.138;8.900;2023-04-10T07:35:46;10.38;;;6.85;;
19036;SDS011;9651;49.138;8.900;2023-04-10T07:39:48;9.80;;;6.60;;
19036;SDS011;9651;49.138;8.900;2023-04-10T07:43:51;7.88;;;6.35;;
19036;SDS011;9651;49.138;8.900;2023-04-10T07:47:52;8.38;;;6.22;;
19036;SDS011;9651;49.138;8.900;2023-04-10T07:51:56;7.85;;;5.97;;
19036;SDS011;9651;49.138;8.900;2023-04-10T07:55:58;8.13;;;5.72;;
19036;SDS011;9651;49.138;8.900;2023-04-10T08:00:00;7.53;;;5.97;;
19036;SDS011;9651;49.138;8.900;2023-04-10T08:04:12;7.22;;;5.50;;
19036;SDS011;9651;49.138;8.900;2023-04-10T08:08:16;6.75;;;5.25;;
19036;SDS011;9651;49.138;8.900;2023-04-10T08:12:18;7.65;;;5.30;;
19036;SDS011;9651;49.138;8.900;2023-04-10T08:16:21;7.22;;;5.68;;
19036;SDS011;9651;49.138;8.900;2023-04-10T08:20:24;5.85;;;4.72;;
19036;SDS011;9651;49.138;8.900;2023-04-10T08:24:28;7.53;;;5.50;;
19036;SDS011;9651;49.138;8.900;2023-04-10T08:28:29;7.32;;;5.28;;
19036;SDS011;9651;49.138;8.900;2023-04-10T08:32:32;6.85;;;5.18;;
19036;SDS011;9651;49.138;8.900;2023-04-10T08:36:34;6.97;;;5.47;;
19036;SDS011;9651;49.138;8.900;2023-04-10T08:40:37;6.32;;;5.07;;
19036;SDS011;9651;49.138;8.900;2023-04-10T08:44:39;6.10;;;5.25;;
19036;SDS011;9651;49.138;8.900;2023-04-10T08:48:44;7.03;;;5.40;;
19036;SDS011;9651;49.138;8.900;2023-04-10T08:52:47;9.50;;;5.30;;
19036;SDS011;9651;49.138;8.900;2023-04-10T08:56:53;9.02;;;6.50;;
19036;SDS011;9651;49.138;8.900;2023-04-10T09:00:57;8.80;;;6.25;;
19036;SDS011;9651;49.138;8.900;2023-04-10T09:05:00;7.50;;;5.70;;
19036;SDS011;9651;49.138;8.900;2023-04-10T09:09:04;6.07;;;5.47;;
19036;SDS011;9651;49.138;8.900;2023-04-10T09:13:07;5.72;;;4.70;;
19036;SDS011;9651;49.138;8.900;2023-04-10T09:17:14;7.78;;;5.40;;
19036;SDS011;9651;49.138;8.900;2023-04-10T09:21:18;5.50;;;4.57;;
19036;SDS011;9651;49.138;8.900;2023-04-10T09:25:30;6.25;;;4.78;;
19036;SDS011;9651;49.138;8.900;2023-04-10T09:29:44;4.47;;;4.03;;
19036;SDS011;9651;49.138;8.900;2023-04-10T09:33:48;4.75;;;4.28;;
19036;SDS011;9651;49.138;8.900;2023-04-10T09:38:14;6.45;;;5.32;;
19036;SDS011;9651;49.138;8.900;2023-04-10T09:42:17;8.73;;;5.97;;
19036;SDS011;9651;49.138;8.900;2023-04-10T09:46:33;6.53;;;5.43;;
19036;SDS011;9651;49.138;8.900;2023-04-10T09:50:35;3.75;;;3.45;;
19036;SDS011;9651;49.138;8.900;2023-04-10T09:54:38;3.85;;;3.45;;
19036;SDS011;9651;49.138;8.900;2023-04-10T09:58:40;3.80;;;3.33;;
19036;SDS011;9651;49.138;8.900;2023-04-10T10:02:43;4.13;;;3.40;;
19036;SDS011;9651;49.138;8.900;2023-04-10T10:06:45;4.30;;;3.90;;
19036;SDS011;9651;49.138;8.900;2023-04-10T10:10:48;4.47;;;3.50;;
19036;SDS011;9651;49.138;8.900;2023-04-10T10:14:53;3.75;;;3.35;;
19036;SDS011;9651;49.138;8.900;2023-04-10T10:19:04;4.88;;;3.58;;
19036;SDS011;9651;49.138;8.900;2023-04-10T10:23:10;5.32;;;3.42;;
19036;SDS011;9651;49.138;8.900;2023-04-10T10:27:12;3.72;;;3.42;;
19036;SDS011;9651;49.138;8.900;2023-04-10T10:31:16;4.18;;;3.78;;
19036;SDS011;9651;49.138;8.900;2023-04-10T10:35:20;3.83;;;3.33;;
19036;SDS011;9651;49.138;8.900;2023-04-10T10:39:27;3.63;;;3.33;;
19036;SDS011;9651;49.138;8.900;2023-04-10T10:43:35;3.67;;;3.28;;
19036;SDS011;9651;49.138;8.900;2023-04-10T10:47:46;3.60;;;3.00;;
19036;SDS011;9651;49.138;8.900;2023-04-10T10:51:52;4.00;;;3.30;;
19036;SDS011;9651;49.138;8.900;2023-04-10T10:55:54;3.58;;;3.22;;
19036;SDS011;9651;49.138;8.900;2023-04-10T10:59:56;4.13;;;3.10;;
19036;SDS011;9651;49.138;8.900;2023-04-10T11:03:58;3.67;;;3.38;;
19036;SDS011;9651;49.138;8.900;2023-04-10T11:08:07;3.00;;;2.80;;
19036;SDS011;9651;49.138;8.900;2023-04-10T11:12:09;3.00;;;2.80;;
19036;SDS011;9651;49.138;8.900;2023-04-10T11:16:11;2.80;;;2.60;;
19036;SDS011;9651;49.138;8.900;2023-04-10T11:20:13;2.92;;;2.72;;
19036;SDS011;9651;49.138;8.900;2023-04-10T11:24:17;3.63;;;3.33;;
19036;SDS011;9651;49.138;8.900;2023-04-10T11:28:35;2.80;;;2.60;;
19036;SDS011;9651;49.138;8.900;2023-04-10T11:32:39;3.20;;;2.90;;
19036;SDS011;9651;49.138;8.900;2023-04-10T11:36:42;2.95;;;2.75;;
19036;SDS011;9651;49.138;8.900;2023-04-10T11:40:56;2.70;;;2.50;;
19036;SDS011;9651;49.138;8.900;2023-04-10T11:49:24;2.67;;;2.47;;
19036;SDS011;9651;49.138;8.900;2023-04-10T11:53:27;1.85;;;1.75;;
19036;SDS011;9651;49.138;8.900;2023-04-10T11:57:34;2.15;;;2.03;;
19036;SDS011;9651;49.138;8.900;2023-04-10T12:01:36;2.10;;;2.00;;
19036;SDS011;9651;49.138;8.900;2023-04-10T12:05:44;2.53;;;2.33;;
19036;SDS011;9651;49.138;8.900;2023-04-10T12:09:48;1.88;;;1.70;;
19036;SDS011;9651;49.138;8.900;2023-04-10T12:13:58;2.00;;;1.83;;
19036;SDS011;9651;49.138;8.900;2023-04-10T12:18:00;2.13;;;1.92;;
19036;SDS011;9651;49.138;8.900;2023-04-10T12:22:03;2.33;;;2.13;;
19036;SDS011;9651;49.138;8.900;2023-04-10T12:26:09;2.10;;;1.90;;
19036;SDS011;9651;49.138;8.900;2023-04-10T12:30:14;1.80;;;1.70;;
19036;SDS011;9651;49.138;8.900;2023-04-10T12:34:17;2.45;;;2.25;;
19036;SDS011;9651;49.138;8.900;2023-04-10T12:38:35;1.92;;;1.60;;
19036;SDS011;9651;49.138;8.900;2023-04-10T12:42:39;1.85;;;1.73;;
19036;SDS011;9651;49.138;8.900;2023-04-10T12:46:42;2.85;;;1.48;;
19036;SDS011;9651;49.138;8.900;2023-04-10T12:50:45;2.00;;;1.70;;
19036;SDS011;9651;49.138;8.900;2023-04-10T12:54:47;2.10;;;1.90;;
19036;SDS011;9651;49.138;8.900;2023-04-10T12:58:52;2.30;;;1.90;;
19036;SDS011;9651;49.138;8.900;2023-04-10T13:03:08;1.70;;;1.60;;
19036;SDS011;9651;49.138;8.900;2023-04-10T13:07:09;1.73;;;1.45;;
19036;SDS011;9651;49.138;8.900;2023-04-10T13:11:11;1.60;;;1.50;;
19036;SDS011;9651;49.138;8.900;2023-04-10T13:15:14;1.50;;;1.40;;
19036;SDS011;9651;49.138;8.900;2023-04-10T13:19:18;1.25;;;1.15;;
19036;SDS011;9651;49.138;8.900;2023-04-10T13:23:20;1.52;;;1.17;;
19036;SDS011;9651;49.138;8.900;2023-04-10T13:27:21;1.30;;;1.20;;
19036;SDS011;9651;49.138;8.900;2023-04-10T13:31:23;1.27;;;1.10;;
19036;SDS011;9651;49.138;8.900;2023-04-10T13:35:27;1.70;;;1.20;;
19036;SDS011;9651;49.138;8.900;2023-04-10T13:39:30;1.17;;;1.08;;
19036;SDS011;9651;49.138;8.900;2023-04-10T13:43:32;1.13;;;1.02;;
19036;SDS011;9651;49.138;8.900;2023-04-10T13:47:34;1.65;;;1.48;;
19036;SDS011;9651;49.138;8.900;2023-04-10T13:51:37;1.58;;;1.33;;
19036;SDS011;9651;49.138;8.900;2023-04-10T13:55:39;1.27;;;1.13;;
19036;SDS011;9651;49.138;8.900;2023-04-10T13:59:42;1.20;;;1.10;;
19036;SDS011;9651;49.138;8.900;2023-04-10T14:03:44;1.23;;;1.13;;
19036;SDS011;9651;49.138;8.900;2023-04-10T14:07:48;1.40;;;0.95;;
19036;SDS011;9651;49.138;8.900;2023-04-10T14:11:51;1.40;;;1.20;;
19036;SDS011;9651;49.138;8.900;2023-04-10T14:15:52;1.40;;;1.20;;
19036;SDS011;9651;49.138;8.900;2023-04-10T14:19:54;1.10;;;1.00;;
19036;SDS011;9651;49.138;8.900;2023-04-10T14:23:58;1.10;;;1.00;;
19036;SDS011;9651;49.138;8.900;2023-04-10T14:27:59;1.30;;;1.20;;
19036;SDS011;9651;49.138;8.900;2023-04-10T14:32:01;1.23;;;1.08;;
19036;SDS011;9651;49.138;8.900;2023-04-10T14:36:04;2.58;;;1.20;;
19036;SDS011;9651;49.138;8.900;2023-04-10T14:40:08;1.20;;;1.10;;
19036;SDS011;9651;49.138;8.900;2023-04-10T14:44:11;1.45;;;1.10;;
19036;SDS011;9651;49.138;8.900;2023-04-10T14:48:13;1.40;;;1.00;;
19036;SDS011;9651;49.138;8.900;2023-04-10T14:52:15;1.10;;;1.00;;
19036;SDS011;9651;49.138;8.900;2023-04-10T14:56:19;1.77;;;1.20;;
19036;SDS011;9651;49.138;8.900;2023-04-10T15:00:20;0.95;;;0.88;;
19036;SDS011;9651;49.138;8.900;2023-04-10T15:04:24;1.10;;;0.90;;
19036;SDS011;9651;49.138;8.900;2023-04-10T15:08:26;1.92;;;1.00;;
19036;SDS011;9651;49.138;8.900;2023-04-10T15:12:29;1.10;;;0.95;;
19036;SDS011;9651;49.138;8.900;2023-04-10T15:16:31;1.92;;;1.38;;
19036;SDS011;9651;49.138;8.900;2023-04-10T15:20:33;2.15;;;1.40;;
19036;SDS011;9651;49.138;8.900;2023-04-10T15:24:35;1.52;;;1.38;;
19036;SDS011;9651;49.138;8.900;2023-04-10T15:28:38;2.45;;;1.25;;
19036;SDS011;9651;49.138;8.900;2023-04-10T15:32:40;0.80;;;0.73;;
19036;SDS011;9651;49.138;8.900;2023-04-10T15:36:42;0.80;;;0.60;;
19036;SDS011;9651;49.138;8.900;2023-04-10T15:40:44;1.10;;;1.00;;
19036;SDS011;9651;49.138;8.900;2023-04-10T15:44:47;0.93;;;0.90;;
19036;SDS011;9651;49.138;8.900;2023-04-10T15:48:49;1.00;;;0.90;;
19036;SDS011;9651;49.138;8.900;2023-04-10T15:52:51;0.88;;;0.82;;
19036;SDS011;9651;49.138;8.900;2023-04-10T15:56:52;1.15;;;1.05;;
19036;SDS011;9651;49.138;8.900;2023-04-10T16:00:56;1.20;;;1.10;;
19036;SDS011;9651;49.138;8.900;2023-04-10T16:04:58;1.67;;;1.08;;
19036;SDS011;9651;49.138;8.900;2023-04-10T16:09:00;0.85;;;0.77;;
19036;SDS011;9651;49.138;8.900;2023-04-10T16:13:02;0.90;;;0.90;;
19036;SDS011;9651;49.138;8.900;2023-04-10T16:17:07;2.15;;;1.83;;
19036;SDS011;9651;49.138;8.900;2023-04-10T16:21:09;2.50;;;2.03;;
19036;SDS011;9651;49.138;8.900;2023-04-10T16:25:11;2.08;;;1.77;;
19036;SDS011;9651;49.138;8.900;2023-04-10T16:29:13;5.75;;;3.78;;
19036;SDS011;9651;49.138;8.900;2023-04-10T16:33:18;6.53;;;5.05;;
19036;SDS011;9651;49.138;8.900;2023-04-10T16:37:20;11.27;;;6.95;;
19036;SDS011;9651;49.138;8.900;2023-04-10T16:41:22;8.38;;;5.55;;
19036;SDS011;9651;49.138;8.900;2023-04-10T16:45:25;18.88;;;12.52;;
19036;SDS011;9651;49.138;8.900;2023-04-10T16:49:28;8.57;;;6.43;;
19036;SDS011;9651;49.138;8.900;2023-04-10T16:53:30;3.92;;;2.97;;
19036;SDS011;9651;49.138;8.900;2023-04-10T16:57:32;6.78;;;2.05;;
19036;SDS011;9651;49.138;8.900;2023-04-10T17:01:34;1.88;;;1.65;;
19036;SDS011;9651;49.138;8.900;2023-04-10T17:05:40;2.03;;;1.38;;
19036;SDS011;9651;49.138;8.900;2023-04-10T17:09:42;0.90;;;0.90;;
19036;SDS011;9651;49.138;8.900;2023-04-10T17:13:44;0.80;;;0.80;;
19036;SDS011;9651;49.138;8.900;2023-04-10T17:17:46;0.98;;;0.88;;
19036;SDS011;9651;49.138;8.900;2023-04-10T17:21:50;1.05;;;0.93;;
19036;SDS011;9651;49.138;8.900;2023-04-10T17:25:53;2.25;;;1.40;;
19036;SDS011;9651;49.138;8.900;2023-04-10T17:29:55;3.42;;;0.80;;
19036;SDS011;9651;49.138;8.900;2023-04-10T17:33:57;2.55;;;0.90;;
19036;SDS011;9651;49.138;8.900;2023-04-10T17:38:03;2.63;;;0.98;;
19036;SDS011;9651;49.138;8.900;2023-04-10T17:42:05;2.03;;;1.23;;
19036;SDS011;9651;49.138;8.900;2023-04-10T17:46:11;1.73;;;1.50;;
19036;SDS011;9651;49.138;8.900;2023-04-10T17:50:13;2.63;;;1.73;;
19036;SDS011;9651;49.138;8.900;2023-04-10T17:54:16;2.50;;;1.83;;
19036;SDS011;9651;49.138;8.900;2023-04-10T17:58:18;3.35;;;1.95;;
19036;SDS011;9651;49.138;8.900;2023-04-10T18:02:20;2.40;;;1.95;;
19036;SDS011;9651;49.138;8.900;2023-04-10T18:06:22;3.10;;;1.60;;
19036;SDS011;9651;49.138;8.900;2023-04-10T18:10:26;3.90;;;2.08;;
19036;SDS011;9651;49.138;8.900;2023-04-10T18:14:28;4.10;;;1.90;;
19036;SDS011;9651;49.138;8.900;2023-04-10T18:18:30;2.78;;;2.20;;
19036;SDS011;9651;49.138;8.900;2023-04-10T18:22:32;3.22;;;2.10;;
19036;SDS011;9651;49.138;8.900;2023-04-10T18:26:35;2.85;;;1.67;;
19036;SDS011;9651;49.138;8.900;2023-04-10T18:30:37;2.45;;;2.10;;
19036;SDS011;9651;49.138;8.900;2023-04-10T18:34:39;2.78;;;2.10;;
19036;SDS011;9651;49.138;8.900;2023-04-10T18:38:41;3.20;;;2.20;;
19036;SDS011;9651;49.138;8.900;2023-04-10T18:42:44;2.78;;;2.47;;
19036;SDS011;9651;49.138;8.900;2023-04-10T18:46:46;2.97;;;2.50;;
19036;SDS011;9651;49.138;8.900;2023-04-10T18:50:49;3.72;;;1.90;;
19036;SDS011;9651;49.138;8.900;2023-04-10T18:54:52;2.95;;;2.45;;
19036;SDS011;9651;49.138;8.900;2023-04-10T18:58:56;2.33;;;2.05;;
19036;SDS011;9651;49.138;8.900;2023-04-10T19:02:58;3.35;;;2.53;;
19036;SDS011;9651;49.138;8.900;2023-04-10T19:07:00;2.85;;;2.25;;
19036;SDS011;9651;49.138;8.900;2023-04-10T19:11:03;2.75;;;2.33;;
19036;SDS011;9651;49.138;8.900;2023-04-10T19:15:06;3.60;;;2.47;;
19036;SDS011;9651;49.138;8.900;2023-04-10T19:19:11;2.88;;;2.08;;
19036;SDS011;9651;49.138;8.900;2023-04-10T19:23:13;3.65;;;2.40;;
19036;SDS011;9651;49.138;8.900;2023-04-10T19:27:14;3.08;;;2.42;;
19036;SDS011;9651;49.138;8.900;2023-04-10T19:31:18;3.03;;;2.58;;
19036;SDS011;9651;49.138;8.900;2023-04-10T19:35:20;5.43;;;2.97;;
19036;SDS011;9651;49.138;8.900;2023-04-10T19:39:22;2.75;;;2.55;;
19036;SDS011;9651;49.138;8.900;2023-04-10T19:43:24;3.88;;;3.00;;
19036;SDS011;9651;49.138;8.900;2023-04-10T19:47:27;4.13;;;2.97;;
19036;SDS011;9651;49.138;8.900;2023-04-10T19:51:29;3.60;;;2.80;;
19036;SDS011;9651;49.138;8.900;2023-04-10T19:55:31;4.30;;;2.95;;
19036;SDS011;9651;49.138;8.900;2023-04-10T19:59:33;4.25;;;2.70;;
19036;SDS011;9651;49.138;8.900;2023-04-10T20:03:37;4.15;;;2.53;;
19036;SDS011;9651;49.138;8.900;2023-04-10T20:07:39;3.40;;;3.03;;
19036;SDS011;9651;49.138;8.900;2023-04-10T20:11:41;3.60;;;2.75;;
19036;SDS011;9651;49.138;8.900;2023-04-10T20:15:43;3.00;;;2.70;;
19036;SDS011;9651;49.138;8.900;2023-04-10T20:19:46;3.25;;;2.70;;
19036;SDS011;9651;49.138;8.900;2023-04-10T20:23:48;3.15;;;2.70;;
19036;SDS011;9651;49.138;8.900;2023-04-10T20:27:50;4.68;;;3.15;;
19036;SDS011;9651;49.138;8.900;2023-04-10T20:31:52;6.65;;;3.20;;
19036;SDS011;9651;49.138;8.900;2023-04-10T20:35:55;4.28;;;3.55;;
19036;SDS011;9651;49.138;8.900;2023-04-10T20:39:57;6.40;;;3.85;;
19036;SDS011;9651;49.138;8.900;2023-04-10T20:43:59;4.32;;;3.40;;
19036;SDS011;9651;49.138;8.900;2023-04-10T20:48:02;3.90;;;3.35;;
19036;SDS011;9651;49.138;8.900;2023-04-10T20:52:05;3.80;;;2.88;;
19036;SDS011;9651;49.138;8.900;2023-04-10T20:56:07;4.03;;;2.90;;
19036;SDS011;9651;49.138;8.900;2023-04-10T21:00:10;3.97;;;3.25;;
19036;SDS011;9651;49.138;8.900;2023-04-10T21:04:12;4.68;;;2.50;;
19036;SDS011;9651;49.138;8.900;2023-04-10T21:08:16;5.15;;;2.60;;
19036;SDS011;9651;49.138;8.900;2023-04-10T21:12:19;3.13;;;2.47;;
19036;SDS011;9651;49.138;8.900;2023-04-10T21:16:22;4.00;;;2.83;;
19036;SDS011;9651;49.138;8.900;2023-04-10T21:20:24;3.70;;;2.90;;
19036;SDS011;9651;49.138;8.900;2023-04-10T21:24:27;3.47;;;2.88;;
19036;SDS011;9651;49.138;8.900;2023-04-10T21:28:29;4.70;;;2.58;;
19036;SDS011;9651;49.138;8.900;2023-04-10T21:32:31;4.82;;;3.17;;
19036;SDS011;9651;49.138;8.900;2023-04-10T21:36:33;3.15;;;2.70;;
19036;SDS011;9651;49.138;8.900;2023-04-10T21:40:36;2.75;;;2.40;;
19036;SDS011;9651;49.138;8.900;2023-04-10T21:44:38;3.20;;;2.60;;
19036;SDS011;9651;49.138;8.900;2023-04-10T21:48:40;2.60;;;2.40;;
19036;SDS011;9651;49.138;8.900;2023-04-10T21:52:42;2.90;;;2.38;;
19036;SDS011;9651;49.138;8.900;2023-04-10T21:56:45;4.53;;;2.50;;
19036;SDS011;9651;49.138;8.900;2023-04-10T22:00:47;3.05;;;2.40;;
19036;SDS011;9651;49.138;8.900;2023-04-10T22:04:50;3.28;;;2.08;;
19036;SDS011;9651;49.138;8.900;2023-04-10T22:08:52;3.20;;;1.95;;
19036;SDS011;9651;49.138;8.900;2023-04-10T22:12:55;3.60;;;1.85;;
19036;SDS011;9651;49.138;8.900;2023-04-10T22:16:57;1.92;;;1.58;;
19036;SDS011;9651;49.138;8.900;2023-04-10T22:20:59;3.67;;;2.20;;
19036;SDS011;9651;49.138;8.900;2023-04-10T22:25:01;2.58;;;1.80;;
19036;SDS011;9651;49.138;8.900;2023-04-10T22:29:05;2.75;;;1.67;;
19036;SDS011;9651;49.138;8.900;2023-04-10T22:33:06;2.88;;;1.77;;
19036;SDS011;9651;49.138;8.900;2023-04-10T22:37:10;1.77;;;1.23;;
19036;SDS011;9651;49.138;8.900;2023-04-10T22:41:12;2.17;;;1.60;;
19036;SDS011;9651;49.138;8.900;2023-04-10T22:45:16;2.55;;;1.50;;
19036;SDS011;9651;49.138;8.900;2023-04-10T22:49:18;2.65;;;1.27;;
19036;SDS011;9651;49.138;8.900;2023-04-10T22:53:20;4.25;;;1.40;;
19036;SDS011;9651;49.138;8.900;2023-04-10T22:57:22;2.33;;;1.40;;
19036;SDS011;9651;49.138;8.900;2023-04-10T23:01:25;1.73;;;0.90;;
19036;SDS011;9651;49.138;8.900;2023-04-10T23:05:27;1.85;;;1.23;;
19036;SDS011;9651;49.138;8.900;2023-04-10T23:09:29;3.15;;;1.38;;
19036;SDS011;9651;49.138;8.900;2023-04-10T23:13:31;6.10;;;1.30;;
19036;SDS011;9651;49.138;8.900;2023-04-10T23:17:34;4.45;;;1.35;;
19036;SDS011;9651;49.138;8.900;2023-04-10T23:21:36;3.55;;;1.20;;
19036;SDS011;9651;49.138;8.900;2023-04-10T23:25:38;3.83;;;1.48;;
19036;SDS011;9651;49.138;8.900;2023-04-10T23:29:40;3.33;;;1.33;;
19036;SDS011;9651;49.138;8.900;2023-04-10T23:33:43;3.45;;;1.20;;
19036;SDS011;9651;49.138;8.900;2023-04-10T23:37:46;2.67;;;1.60;;
19036;SDS011;9651;49.138;8.900;2023-04-10T23:41:49;4.93;;;1.50;;
19036;SDS011;9651;49.138;8.900;2023-04-10T23:45:51;3.13;;;1.45;;
19036;SDS011;9651;49.138;8.900;2023-04-10T23:49:56;1.58;;;1.30;;
19036;SDS011;9651;49.138;8.900;2023-04-10T23:53:58;4.93;;;1.58;;
19036;SDS011;9651;49.138;8.900;2023-04-10T23:58:00;6.63;;;1.60;;
